sensor_id;sensor_type;location;lat;lon;timestamp;temperature;humidity
23069;DHT22;11702;50.856;4.348;2022-12-18T00:01:40;-3.40;99.90
23069;DHT22;11702;50.856;4.348;2022-12-18T00:04:07;-3.50;99.90
23069;DHT22;11702;50.856;4.348;2022-12-18T00:06:34;-3.60;99.90
23069;DHT22;11702;50.856;4.348;2022-12-18T00:09:01;-3.70;99.90
23069;DHT22;11702;50.856;4.348;2022-12-18T00:11:29;-3.70;99.90
23069;DHT22;11702;50.856;4.348;2022-12-18T00:13:56;-3.70;99.90
23069;DHT22;11702;50.856;4.348;2022-12-18T00:16:23;-3.70;99.90
23069;DHT22;11702;50.856;4.348;2022-12-18T00:18:52;-3.60;99.90
23069;DHT22;11702;50.856;4.348;2022-12-18T00:21:19;-3.70;99.90
23069;DHT22;11702;50.856;4.348;2022-12-18T00:23:45;-3.70;99.90
23069;DHT22;11702;50.856;4.348;2022-12-18T00:26:19;-3.70;99.90
23069;DHT22;11702;50.856;4.348;2022-12-18T00:28:45;-3.70;99.90
23069;DHT22;11702;50.856;4.348;2022-12-18T00:31:14;-3.70;99.90
23069;DHT22;11702;50.856;4.348;2022-12-18T00:33:40;-3.70;99.90
23069;DHT22;11702;50.856;4.348;2022-12-18T00:36:13;-3.90;99.90
23069;DHT22;11702;50.856;4.348;2022-12-18T00:38:39;-3.90;99.90
23069;DHT22;11702;50.856;4.348;2022-12-18T00:41:06;-3.70;99.90
23069;DHT22;11702;50.856;4.348;2022-12-18T00:43:32;-3.60;99.90
23069;DHT22;11702;50.856;4.348;2022-12-18T00:45:57;-3.50;99.90
23069;DHT22;11702;50.856;4.348;2022-12-18T00:48:23;-3.50;99.90
23069;DHT22;11702;50.856;4.348;2022-12-18T00:50:49;-3.40;99.90
23069;DHT22;11702;50.856;4.348;2022-12-18T00:53:15;-3.40;99.90
23069;DHT22;11702;50.856;4.348;2022-12-18T00:55:41;-3.30;99.90
23069;DHT22;11702;50.856;4.348;2022-12-18T00:58:09;-3.40;99.90
23069;DHT22;11702;50.856;4.348;2022-12-18T01:00:35;-3.40;99.90
23069;DHT22;11702;50.856;4.348;2022-12-18T01:03:01;-3.40;99.90
23069;DHT22;11702;50.856;4.348;2022-12-18T01:05:26;-3.40;99.90
23069;DHT22;11702;50.856;4.348;2022-12-18T01:07:52;-3.30;99.90
23069;DHT22;11702;50.856;4.348;2022-12-18T01:10:18;-3.10;99.90
23069;DHT22;11702;50.856;4.348;2022-12-18T01:12:43;-3.10;99.90
23069;DHT22;11702;50.856;4.348;2022-12-18T01:15:10;-3.20;99.90
23069;DHT22;11702;50.856;4.348;2022-12-18T01:17:37;-3.20;99.90
23069;DHT22;11702;50.856;4.348;2022-12-18T01:20:03;-3.10;99.90
23069;DHT22;11702;50.856;4.348;2022-12-18T01:22:29;-2.90;99.90
23069;DHT22;11702;50.856;4.348;2022-12-18T01:24:55;-2.90;99.90
23069;DHT22;11702;50.856;4.348;2022-12-18T01:27:20;-2.90;99.90
23069;DHT22;11702;50.856;4.348;2022-12-18T01:29:46;-2.90;99.90
23069;DHT22;11702;50.856;4.348;2022-12-18T01:32:11;-2.90;99.90
23069;DHT22;11702;50.856;4.348;2022-12-18T01:34:37;-3.20;99.90
23069;DHT22;11702;50.856;4.348;2022-12-18T01:37:04;-3.50;99.90
23069;DHT22;11702;50.856;4.348;2022-12-18T01:39:30;-3.70;99.90
23069;DHT22;11702;50.856;4.348;2022-12-18T01:41:58;-3.70;99.90
23069;DHT22;11702;50.856;4.348;2022-12-18T01:49:55;-4.00;99.90
23069;DHT22;11702;50.856;4.348;2022-12-18T01:52:24;-4.10;99.90
23069;DHT22;11702;50.856;4.348;2022-12-18T01:54:52;-4.10;99.90
23069;DHT22;11702;50.856;4.348;2022-12-18T01:57:18;-4.20;99.90
23069;DHT22;11702;50.856;4.348;2022-12-18T01:59:47;-4.20;99.90
23069;DHT22;11702;50.856;4.348;2022-12-18T02:02:15;-4.30;99.90
23069;DHT22;11702;50.856;4.348;2022-12-18T02:04:41;-4.30;99.90
23069;DHT22;11702;50.856;4.348;2022-12-18T02:07:24;-4.30;99.90
23069;DHT22;11702;50.856;4.348;2022-12-18T02:09:59;-4.30;99.90
23069;DHT22;11702;50.856;4.348;2022-12-18T02:12:48;-4.30;99.90
23069;DHT22;11702;50.856;4.348;2022-12-18T02:15:25;-4.30;99.90
23069;DHT22;11702;50.856;4.348;2022-12-18T02:18:02;-4.40;99.90
23069;DHT22;11702;50.856;4.348;2022-12-18T02:20:35;-4.40;99.90
23069;DHT22;11702;50.856;4.348;2022-12-18T02:28:34;-4.30;99.90
23069;DHT22;11702;50.856;4.348;2022-12-18T02:31:03;-4.30;99.90
23069;DHT22;11702;50.856;4.348;2022-12-18T02:33:30;-4.40;99.90
23069;DHT22;11702;50.856;4.348;2022-12-18T02:35:58;-4.40;99.90
23069;DHT22;11702;50.856;4.348;2022-12-18T02:38:25;-4.40;99.90
23069;DHT22;11702;50.856;4.348;2022-12-18T02:40:52;-4.50;99.90
23069;DHT22;11702;50.856;4.348;2022-12-18T02:43:18;-4.50;99.90
23069;DHT22;11702;50.856;4.348;2022-12-18T02:45:54;-4.50;99.90
23069;DHT22;11702;50.856;4.348;2022-12-18T02:48:30;-4.60;99.90
23069;DHT22;11702;50.856;4.348;2022-12-18T02:51:01;-4.60;99.90
23069;DHT22;11702;50.856;4.348;2022-12-18T02:53:52;-4.70;99.90
23069;DHT22;11702;50.856;4.348;2022-12-18T02:56:23;-4.80;99.90
23069;DHT22;11702;50.856;4.348;2022-12-18T02:58:58;-4.70;99.90
23069;DHT22;11702;50.856;4.348;2022-12-18T03:04:12;-4.60;99.90
23069;DHT22;11702;50.856;4.348;2022-12-18T03:06:43;-4.60;99.90
23069;DHT22;11702;50.856;4.348;2022-12-18T03:09:16;-4.60;99.90
23069;DHT22;11702;50.856;4.348;2022-12-18T03:11:48;-4.70;99.90
23069;DHT22;11702;50.856;4.348;2022-12-18T03:14:36;-4.70;99.90
23069;DHT22;11702;50.856;4.348;2022-12-18T03:17:05;-4.80;99.90
23069;DHT22;11702;50.856;4.348;2022-12-18T03:19:33;-4.80;99.90
23069;DHT22;11702;50.856;4.348;2022-12-18T03:22:02;-4.80;99.90
23069;DHT22;11702;50.856;4.348;2022-12-18T03:24:30;-4.90;99.90
23069;DHT22;11702;50.856;4.348;2022-12-18T03:27:00;-4.90;99.90
23069;DHT22;11702;50.856;4.348;2022-12-18T03:32:03;-4.90;99.90
23069;DHT22;11702;50.856;4.348;2022-12-18T03:34:32;-4.80;99.90
23069;DHT22;11702;50.856;4.348;2022-12-18T03:36:59;-4.90;99.90
23069;DHT22;11702;50.856;4.348;2022-12-18T03:39:24;-4.90;99.90
23069;DHT22;11702;50.856;4.348;2022-12-18T03:42:45;-4.80;99.90
23069;DHT22;11702;50.856;4.348;2022-12-18T03:45:12;-4.80;99.90
23069;DHT22;11702;50.856;4.348;2022-12-18T03:50:49;-4.80;99.90
23069;DHT22;11702;50.856;4.348;2022-12-18T03:53:50;-4.90;99.90
23069;DHT22;11702;50.856;4.348;2022-12-18T03:56:18;-4.80;99.90
23069;DHT22;11702;50.856;4.348;2022-12-18T03:58:48;-4.80;99.90
23069;DHT22;11702;50.856;4.348;2022-12-18T04:01:16;-4.90;99.90
23069;DHT22;11702;50.856;4.348;2022-12-18T04:03:44;-4.90;99.90
23069;DHT22;11702;50.856;4.348;2022-12-18T04:06:12;-4.90;99.90
23069;DHT22;11702;50.856;4.348;2022-12-18T04:08:39;-4.90;99.90
23069;DHT22;11702;50.856;4.348;2022-12-18T04:11:05;-4.80;99.90
23069;DHT22;11702;50.856;4.348;2022-12-18T04:13:36;-4.80;99.90
23069;DHT22;11702;50.856;4.348;2022-12-18T04:16:03;-4.80;99.90
23069;DHT22;11702;50.856;4.348;2022-12-18T04:18:29;-4.90;99.90
23069;DHT22;11702;50.856;4.348;2022-12-18T04:20:55;-4.90;99.90
23069;DHT22;11702;50.856;4.348;2022-12-18T04:23:20;-5.00;99.90
23069;DHT22;11702;50.856;4.348;2022-12-18T04:25:47;-5.00;99.90
23069;DHT22;11702;50.856;4.348;2022-12-18T04:28:13;-5.00;99.90
23069;DHT22;11702;50.856;4.348;2022-12-18T04:30:38;-4.90;99.90
23069;DHT22;11702;50.856;4.348;2022-12-18T04:33:11;-4.90;99.90
23069;DHT22;11702;50.856;4.348;2022-12-18T04:35:38;-4.90;99.90
23069;DHT22;11702;50.856;4.348;2022-12-18T04:38:03;-4.90;99.90
23069;DHT22;11702;50.856;4.348;2022-12-18T04:40:30;-5.00;99.90
23069;DHT22;11702;50.856;4.348;2022-12-18T04:42:56;-4.90;99.90
23069;DHT22;11702;50.856;4.348;2022-12-18T04:45:21;-5.00;99.90
23069;DHT22;11702;50.856;4.348;2022-12-18T04:47:47;-5.00;99.90
23069;DHT22;11702;50.856;4.348;2022-12-18T04:50:12;-5.00;99.90
23069;DHT22;11702;50.856;4.348;2022-12-18T04:52:38;-5.00;99.90
23069;DHT22;11702;50.856;4.348;2022-12-18T04:55:04;-5.00;99.90
23069;DHT22;11702;50.856;4.348;2022-12-18T04:57:29;-5.00;99.90
23069;DHT22;11702;50.856;4.348;2022-12-18T04:59:55;-5.00;99.90
23069;DHT22;11702;50.856;4.348;2022-12-18T05:02:20;-4.90;99.90
23069;DHT22;11702;50.856;4.348;2022-12-18T05:04:46;-4.90;99.90
23069;DHT22;11702;50.856;4.348;2022-12-18T05:07:11;-4.90;99.90
23069;DHT22;11702;50.856;4.348;2022-12-18T05:09:37;-5.00;99.90
23069;DHT22;11702;50.856;4.348;2022-12-18T05:12:03;-5.00;99.90
23069;DHT22;11702;50.856;4.348;2022-12-18T05:14:28;-5.10;99.90
23069;DHT22;11702;50.856;4.348;2022-12-18T05:16:54;-5.10;99.90
23069;DHT22;11702;50.856;4.348;2022-12-18T05:19:20;-5.10;99.90
23069;DHT22;11702;50.856;4.348;2022-12-18T05:21:45;-5.10;99.90
23069;DHT22;11702;50.856;4.348;2022-12-18T05:24:11;-5.00;99.90
23069;DHT22;11702;50.856;4.348;2022-12-18T05:26:36;-5.10;99.90
23069;DHT22;11702;50.856;4.348;2022-12-18T05:29:02;-5.00;99.90
23069;DHT22;11702;50.856;4.348;2022-12-18T05:31:28;-5.00;99.90
23069;DHT22;11702;50.856;4.348;2022-12-18T05:33:53;-5.10;99.90
23069;DHT22;11702;50.856;4.348;2022-12-18T05:36:20;-5.10;99.90
23069;DHT22;11702;50.856;4.348;2022-12-18T05:38:46;-5.10;99.90
23069;DHT22;11702;50.856;4.348;2022-12-18T05:41:11;-5.10;99.90
23069;DHT22;11702;50.856;4.348;2022-12-18T05:43:38;-5.10;99.90
23069;DHT22;11702;50.856;4.348;2022-12-18T05:46:05;-5.10;99.90
23069;DHT22;11702;50.856;4.348;2022-12-18T05:48:31;-5.00;99.90
23069;DHT22;11702;50.856;4.348;2022-12-18T05:51:06;-5.00;99.90
23069;DHT22;11702;50.856;4.348;2022-12-18T05:53:32;-5.00;99.90
23069;DHT22;11702;50.856;4.348;2022-12-18T05:56:06;-4.80;99.90
23069;DHT22;11702;50.856;4.348;2022-12-18T05:58:32;-4.80;99.90
23069;DHT22;11702;50.856;4.348;2022-12-18T06:01:12;-4.80;99.90
23069;DHT22;11702;50.856;4.348;2022-12-18T06:03:38;-4.80;99.90
23069;DHT22;11702;50.856;4.348;2022-12-18T06:06:11;-4.70;99.90
23069;DHT22;11702;50.856;4.348;2022-12-18T06:08:37;-4.70;99.90
23069;DHT22;11702;50.856;4.348;2022-12-18T06:11:03;-4.70;99.90
23069;DHT22;11702;50.856;4.348;2022-12-18T06:13:28;-4.70;99.90
23069;DHT22;11702;50.856;4.348;2022-12-18T06:15:54;-4.60;99.90
23069;DHT22;11702;50.856;4.348;2022-12-18T06:18:19;-4.70;99.90
23069;DHT22;11702;50.856;4.348;2022-12-18T06:20:45;-4.60;99.90
23069;DHT22;11702;50.856;4.348;2022-12-18T06:23:11;-4.70;99.90
23069;DHT22;11702;50.856;4.348;2022-12-18T06:25:38;-4.80;99.90
23069;DHT22;11702;50.856;4.348;2022-12-18T06:28:04;-4.80;99.90
23069;DHT22;11702;50.856;4.348;2022-12-18T06:30:29;-4.90;99.90
23069;DHT22;11702;50.856;4.348;2022-12-18T06:32:55;-4.90;99.90
23069;DHT22;11702;50.856;4.348;2022-12-18T06:35:21;-4.80;99.90
23069;DHT22;11702;50.856;4.348;2022-12-18T06:37:46;-4.80;99.90
23069;DHT22;11702;50.856;4.348;2022-12-18T06:40:12;-4.80;99.90
23069;DHT22;11702;50.856;4.348;2022-12-18T06:42:37;-4.60;99.90
23069;DHT22;11702;50.856;4.348;2022-12-18T06:45:03;-4.60;99.90
23069;DHT22;11702;50.856;4.348;2022-12-18T06:47:29;-4.60;99.90
23069;DHT22;11702;50.856;4.348;2022-12-18T06:49:54;-4.60;99.90
23069;DHT22;11702;50.856;4.348;2022-12-18T06:52:20;-4.70;99.90
23069;DHT22;11702;50.856;4.348;2022-12-18T06:54:45;-4.60;99.90
23069;DHT22;11702;50.856;4.348;2022-12-18T06:57:11;-4.50;99.90
23069;DHT22;11702;50.856;4.348;2022-12-18T06:59:36;-4.50;99.90
23069;DHT22;11702;50.856;4.348;2022-12-18T07:02:02;-4.50;99.90
23069;DHT22;11702;50.856;4.348;2022-12-18T07:04:31;-4.40;99.90
23069;DHT22;11702;50.856;4.348;2022-12-18T07:06:57;-4.30;99.90
23069;DHT22;11702;50.856;4.348;2022-12-18T07:09:23;-4.20;99.90
23069;DHT22;11702;50.856;4.348;2022-12-18T07:11:48;-4.00;99.90
23069;DHT22;11702;50.856;4.348;2022-12-18T07:14:14;-3.90;99.90
23069;DHT22;11702;50.856;4.348;2022-12-18T07:16:39;-3.90;99.90
23069;DHT22;11702;50.856;4.348;2022-12-18T07:19:06;-3.80;99.90
23069;DHT22;11702;50.856;4.348;2022-12-18T07:21:31;-3.70;99.90
23069;DHT22;11702;50.856;4.348;2022-12-18T07:23:57;-3.80;99.90
23069;DHT22;11702;50.856;4.348;2022-12-18T07:26:23;-3.80;99.90
23069;DHT22;11702;50.856;4.348;2022-12-18T07:28:49;-3.70;99.90
23069;DHT22;11702;50.856;4.348;2022-12-18T07:31:17;-3.80;99.90
23069;DHT22;11702;50.856;4.348;2022-12-18T07:33:43;-3.90;99.90
23069;DHT22;11702;50.856;4.348;2022-12-18T07:36:10;-4.00;99.90
23069;DHT22;11702;50.856;4.348;2022-12-18T07:38:36;-4.00;99.90
23069;DHT22;11702;50.856;4.348;2022-12-18T07:41:07;-4.00;99.90
23069;DHT22;11702;50.856;4.348;2022-12-18T07:43:34;-4.10;99.90
23069;DHT22;11702;50.856;4.348;2022-12-18T07:46:00;-4.10;99.90
23069;DHT22;11702;50.856;4.348;2022-12-18T07:48:26;-4.20;99.90
23069;DHT22;11702;50.856;4.348;2022-12-18T07:50:52;-4.10;99.90
23069;DHT22;11702;50.856;4.348;2022-12-18T07:53:17;-4.00;99.90
23069;DHT22;11702;50.856;4.348;2022-12-18T07:55:43;-4.10;99.90
23069;DHT22;11702;50.856;4.348;2022-12-18T07:58:08;-4.10;99.90
23069;DHT22;11702;50.856;4.348;2022-12-18T08:00:35;-3.90;99.90
23069;DHT22;11702;50.856;4.348;2022-12-18T08:03:00;-3.90;99.90
23069;DHT22;11702;50.856;4.348;2022-12-18T08:05:26;-3.90;99.90
23069;DHT22;11702;50.856;4.348;2022-12-18T08:07:53;-3.70;99.90
23069;DHT22;11702;50.856;4.348;2022-12-18T08:10:20;-3.60;99.90
23069;DHT22;11702;50.856;4.348;2022-12-18T08:12:49;-3.60;99.90
23069;DHT22;11702;50.856;4.348;2022-12-18T08:15:15;-3.60;99.90
23069;DHT22;11702;50.856;4.348;2022-12-18T08:17:40;-3.50;99.90
23069;DHT22;11702;50.856;4.348;2022-12-18T08:20:06;-3.40;99.90
23069;DHT22;11702;50.856;4.348;2022-12-18T08:22:36;-3.40;99.90
23069;DHT22;11702;50.856;4.348;2022-12-18T08:25:03;-3.40;99.90
23069;DHT22;11702;50.856;4.348;2022-12-18T08:27:29;-3.30;99.90
23069;DHT22;11702;50.856;4.348;2022-12-18T08:29:55;-3.30;99.90
23069;DHT22;11702;50.856;4.348;2022-12-18T08:32:20;-3.20;99.90
23069;DHT22;11702;50.856;4.348;2022-12-18T08:34:46;-3.20;99.90
23069;DHT22;11702;50.856;4.348;2022-12-18T08:37:11;-3.10;99.90
23069;DHT22;11702;50.856;4.348;2022-12-18T08:39:37;-3.00;99.90
23069;DHT22;11702;50.856;4.348;2022-12-18T08:42:03;-3.00;99.90
23069;DHT22;11702;50.856;4.348;2022-12-18T08:44:48;-2.80;99.90
23069;DHT22;11702;50.856;4.348;2022-12-18T08:47:14;-2.70;99.90
23069;DHT22;11702;50.856;4.348;2022-12-18T08:49:39;-2.50;99.90
23069;DHT22;11702;50.856;4.348;2022-12-18T08:52:05;-2.30;99.90
23069;DHT22;11702;50.856;4.348;2022-12-18T08:54:31;-2.20;99.90
23069;DHT22;11702;50.856;4.348;2022-12-18T08:56:56;-2.10;99.90
23069;DHT22;11702;50.856;4.348;2022-12-18T08:59:22;-2.00;99.90
23069;DHT22;11702;50.856;4.348;2022-12-18T09:01:49;-1.80;99.90
23069;DHT22;11702;50.856;4.348;2022-12-18T09:04:14;-1.60;99.90
23069;DHT22;11702;50.856;4.348;2022-12-18T09:06:40;-1.40;99.90
23069;DHT22;11702;50.856;4.348;2022-12-18T09:09:06;-1.40;99.90
23069;DHT22;11702;50.856;4.348;2022-12-18T09:11:32;-1.40;99.90
23069;DHT22;11702;50.856;4.348;2022-12-18T09:14:00;-1.30;99.90
23069;DHT22;11702;50.856;4.348;2022-12-18T09:16:27;-1.30;99.90
23069;DHT22;11702;50.856;4.348;2022-12-18T09:18:57;-1.20;99.90
23069;DHT22;11702;50.856;4.348;2022-12-18T09:21:27;-1.10;99.90
23069;DHT22;11702;50.856;4.348;2022-12-18T09:23:55;-1.00;99.90
23069;DHT22;11702;50.856;4.348;2022-12-18T09:26:22;-0.90;99.90
23069;DHT22;11702;50.856;4.348;2022-12-18T09:28:47;-0.90;99.90
23069;DHT22;11702;50.856;4.348;2022-12-18T09:31:15;-0.80;99.90
23069;DHT22;11702;50.856;4.348;2022-12-18T09:33:41;-0.70;99.90
23069;DHT22;11702;50.856;4.348;2022-12-18T09:36:09;-0.50;99.90
23069;DHT22;11702;50.856;4.348;2022-12-18T09:38:35;-0.60;99.90
23069;DHT22;11702;50.856;4.348;2022-12-18T09:41:06;-0.50;99.90
23069;DHT22;11702;50.856;4.348;2022-12-18T09:44:00;-0.60;99.90
23069;DHT22;11702;50.856;4.348;2022-12-18T09:46:30;-0.70;99.90
23069;DHT22;11702;50.856;4.348;2022-12-18T09:49:00;-0.60;99.90
23069;DHT22;11702;50.856;4.348;2022-12-18T09:51:35;-0.60;99.90
23069;DHT22;11702;50.856;4.348;2022-12-18T09:54:11;-0.40;99.90
23069;DHT22;11702;50.856;4.348;2022-12-18T09:56:40;-0.20;99.90
23069;DHT22;11702;50.856;4.348;2022-12-18T09:59:32;-0.10;99.90
23069;DHT22;11702;50.856;4.348;2022-12-18T10:01:59;0.00;99.90
23069;DHT22;11702;50.856;4.348;2022-12-18T10:04:28;0.00;99.90
23069;DHT22;11702;50.856;4.348;2022-12-18T10:07:01;0.00;99.90
23069;DHT22;11702;50.856;4.348;2022-12-18T10:13:29;0.20;99.90
23069;DHT22;11702;50.856;4.348;2022-12-18T10:18:32;0.40;99.90
23069;DHT22;11702;50.856;4.348;2022-12-18T10:21:05;0.50;99.90
23069;DHT22;11702;50.856;4.348;2022-12-18T10:26:19;0.30;99.90
23069;DHT22;11702;50.856;4.348;2022-12-18T10:28:44;0.50;99.90
23069;DHT22;11702;50.856;4.348;2022-12-18T10:31:22;0.50;99.90
23069;DHT22;11702;50.856;4.348;2022-12-18T10:33:48;0.50;99.90
23069;DHT22;11702;50.856;4.348;2022-12-18T10:36:14;0.50;99.90
23069;DHT22;11702;50.856;4.348;2022-12-18T10:38:40;0.70;99.90
23069;DHT22;11702;50.856;4.348;2022-12-18T10:43:51;0.80;99.90
23069;DHT22;11702;50.856;4.348;2022-12-18T10:46:34;0.90;99.90
23069;DHT22;11702;50.856;4.348;2022-12-18T10:49:00;0.90;99.90
23069;DHT22;11702;50.856;4.348;2022-12-18T10:51:29;1.00;99.90
23069;DHT22;11702;50.856;4.348;2022-12-18T10:53:57;1.00;99.90
23069;DHT22;11702;50.856;4.348;2022-12-18T10:56:26;1.00;99.90
23069;DHT22;11702;50.856;4.348;2022-12-18T10:59:01;1.00;99.90
23069;DHT22;11702;50.856;4.348;2022-12-18T11:01:28;1.10;99.90
23069;DHT22;11702;50.856;4.348;2022-12-18T11:06:23;1.40;99.90
23069;DHT22;11702;50.856;4.348;2022-12-18T11:11:31;1.70;99.90
23069;DHT22;11702;50.856;4.348;2022-12-18T11:14:03;1.80;99.90
23069;DHT22;11702;50.856;4.348;2022-12-18T11:16:54;1.90;99.90
23069;DHT22;11702;50.856;4.348;2022-12-18T11:19:32;2.00;99.90
23069;DHT22;11702;50.856;4.348;2022-12-18T11:21:59;2.10;99.90
23069;DHT22;11702;50.856;4.348;2022-12-18T11:24:33;2.10;99.90
23069;DHT22;11702;50.856;4.348;2022-12-18T11:27:02;2.10;99.90
23069;DHT22;11702;50.856;4.348;2022-12-18T11:29:35;2.50;99.90
23069;DHT22;11702;50.856;4.348;2022-12-18T11:35:17;2.50;99.90
23069;DHT22;11702;50.856;4.348;2022-12-18T11:37:49;2.40;99.90
23069;DHT22;11702;50.856;4.348;2022-12-18T11:40:29;2.40;99.90
23069;DHT22;11702;50.856;4.348;2022-12-18T11:45:53;2.50;99.90
23069;DHT22;11702;50.856;4.348;2022-12-18T11:48:44;2.70;99.90
23069;DHT22;11702;50.856;4.348;2022-12-18T11:51:15;2.90;99.90
23069;DHT22;11702;50.856;4.348;2022-12-18T11:53:45;2.70;99.90
23069;DHT22;11702;50.856;4.348;2022-12-18T11:56:33;2.60;99.90
23069;DHT22;11702;50.856;4.348;2022-12-18T12:14:04;2.30;99.90
23069;DHT22;11702;50.856;4.348;2022-12-18T12:16:54;2.50;99.90
23069;DHT22;11702;50.856;4.348;2022-12-18T12:19:34;2.40;99.90
23069;DHT22;11702;50.856;4.348;2022-12-18T12:25:01;2.30;99.90
23069;DHT22;11702;50.856;4.348;2022-12-18T12:30:21;2.40;99.90
23069;DHT22;11702;50.856;4.348;2022-12-18T12:38:36;2.60;99.90
23069;DHT22;11702;50.856;4.348;2022-12-18T12:41:08;2.70;99.90
23069;DHT22;11702;50.856;4.348;2022-12-18T12:43:58;2.80;99.90
23069;DHT22;11702;50.856;4.348;2022-12-18T12:46:25;2.90;99.90
23069;DHT22;11702;50.856;4.348;2022-12-18T12:48:52;2.90;99.90
23069;DHT22;11702;50.856;4.348;2022-12-18T12:51:22;2.80;99.90
23069;DHT22;11702;50.856;4.348;2022-12-18T12:53:50;2.90;99.90
23069;DHT22;11702;50.856;4.348;2022-12-18T12:56:19;2.80;99.90
23069;DHT22;11702;50.856;4.348;2022-12-18T12:59:10;2.70;99.90
23069;DHT22;11702;50.856;4.348;2022-12-18T13:02:04;2.70;99.90
23069;DHT22;11702;50.856;4.348;2022-12-18T13:04:48;2.80;99.90
23069;DHT22;11702;50.856;4.348;2022-12-18T13:07:35;2.70;99.90
23069;DHT22;11702;50.856;4.348;2022-12-18T13:20:39;2.70;99.90
23069;DHT22;11702;50.856;4.348;2022-12-18T13:33:43;2.40;99.90
23069;DHT22;11702;50.856;4.348;2022-12-18T13:36:25;2.30;99.90
23069;DHT22;11702;50.856;4.348;2022-12-18T13:39:31;2.30;99.90
23069;DHT22;11702;50.856;4.348;2022-12-18T13:44:33;2.20;99.90
23069;DHT22;11702;50.856;4.348;2022-12-18T13:47:01;2.20;99.90
23069;DHT22;11702;50.856;4.348;2022-12-18T13:51:56;2.30;99.90
23069;DHT22;11702;50.856;4.348;2022-12-18T13:54:35;2.30;99.90
23069;DHT22;11702;50.856;4.348;2022-12-18T13:57:03;2.30;99.90
23069;DHT22;11702;50.856;4.348;2022-12-18T13:59:39;2.20;99.90
23069;DHT22;11702;50.856;4.348;2022-12-18T14:02:21;2.20;99.90
23069;DHT22;11702;50.856;4.348;2022-12-18T14:04:48;2.30;99.90
23069;DHT22;11702;50.856;4.348;2022-12-18T14:07:19;2.30;99.90
23069;DHT22;11702;50.856;4.348;2022-12-18T14:09:58;2.40;99.90
23069;DHT22;11702;50.856;4.348;2022-12-18T14:12:27;2.40;99.90
23069;DHT22;11702;50.856;4.348;2022-12-18T14:18:02;2.20;99.90
23069;DHT22;11702;50.856;4.348;2022-12-18T14:20:31;2.20;99.90
23069;DHT22;11702;50.856;4.348;2022-12-18T14:22:58;2.20;99.90
23069;DHT22;11702;50.856;4.348;2022-12-18T14:25:29;2.40;99.90
23069;DHT22;11702;50.856;4.348;2022-12-18T14:28:14;2.40;99.90
23069;DHT22;11702;50.856;4.348;2022-12-18T14:30:42;2.40;99.90
23069;DHT22;11702;50.856;4.348;2022-12-18T14:33:18;2.40;99.90
23069;DHT22;11702;50.856;4.348;2022-12-18T14:35:59;2.50;99.90
23069;DHT22;11702;50.856;4.348;2022-12-18T14:38:30;2.50;99.90
23069;DHT22;11702;50.856;4.348;2022-12-18T14:41:17;2.50;99.90
23069;DHT22;11702;50.856;4.348;2022-12-18T14:43:46;2.40;99.90
23069;DHT22;11702;50.856;4.348;2022-12-18T14:49:01;2.30;99.90
23069;DHT22;11702;50.856;4.348;2022-12-18T14:51:30;2.30;99.90
23069;DHT22;11702;50.856;4.348;2022-12-18T14:54:02;2.30;99.90
23069;DHT22;11702;50.856;4.348;2022-12-18T14:56:30;2.30;99.90
23069;DHT22;11702;50.856;4.348;2022-12-18T14:59:03;2.30;99.90
23069;DHT22;11702;50.856;4.348;2022-12-18T15:04:37;2.20;99.90
23069;DHT22;11702;50.856;4.348;2022-12-18T15:07:20;2.10;99.90
23069;DHT22;11702;50.856;4.348;2022-12-18T15:10:16;2.00;99.90
23069;DHT22;11702;50.856;4.348;2022-12-18T15:20:43;1.90;99.90
23069;DHT22;11702;50.856;4.348;2022-12-18T15:23:31;1.90;99.90
23069;DHT22;11702;50.856;4.348;2022-12-18T15:26:06;2.00;99.90
23069;DHT22;11702;50.856;4.348;2022-12-18T15:34:00;2.00;99.90
23069;DHT22;11702;50.856;4.348;2022-12-18T15:36:29;2.00;99.90
23069;DHT22;11702;50.856;4.348;2022-12-18T15:38:56;2.00;99.90
23069;DHT22;11702;50.856;4.348;2022-12-18T15:41:23;2.00;99.90
23069;DHT22;11702;50.856;4.348;2022-12-18T15:43:52;2.10;99.90
23069;DHT22;11702;50.856;4.348;2022-12-18T15:46:27;2.10;99.90
23069;DHT22;11702;50.856;4.348;2022-12-18T15:48:54;2.10;99.90
23069;DHT22;11702;50.856;4.348;2022-12-18T15:51:23;2.10;99.90
23069;DHT22;11702;50.856;4.348;2022-12-18T15:53:52;2.20;99.90
23069;DHT22;11702;50.856;4.348;2022-12-18T15:56:18;2.20;99.90
23069;DHT22;11702;50.856;4.348;2022-12-18T15:59:12;2.10;99.90
23069;DHT22;11702;50.856;4.348;2022-12-18T16:01:39;2.10;99.90
23069;DHT22;11702;50.856;4.348;2022-12-18T16:04:05;2.10;99.90
23069;DHT22;11702;50.856;4.348;2022-12-18T16:06:31;2.10;99.90
23069;DHT22;11702;50.856;4.348;2022-12-18T16:08:57;2.10;99.90
23069;DHT22;11702;50.856;4.348;2022-12-18T16:11:29;2.10;99.90
23069;DHT22;11702;50.856;4.348;2022-12-18T16:16:41;2.10;99.90
23069;DHT22;11702;50.856;4.348;2022-12-18T16:19:07;2.10;99.90
23069;DHT22;11702;50.856;4.348;2022-12-18T16:21:32;2.10;99.90
23069;DHT22;11702;50.856;4.348;2022-12-18T16:23:58;2.10;99.90
23069;DHT22;11702;50.856;4.348;2022-12-18T16:26:24;2.10;99.90
23069;DHT22;11702;50.856;4.348;2022-12-18T16:28:50;2.20;99.90
23069;DHT22;11702;50.856;4.348;2022-12-18T16:31:15;2.20;99.90
23069;DHT22;11702;50.856;4.348;2022-12-18T16:33:41;2.20;99.90
23069;DHT22;11702;50.856;4.348;2022-12-18T16:36:07;2.20;99.90
23069;DHT22;11702;50.856;4.348;2022-12-18T16:38:33;2.20;99.90
23069;DHT22;11702;50.856;4.348;2022-12-18T16:40:59;2.20;99.90
23069;DHT22;11702;50.856;4.348;2022-12-18T16:43:43;2.20;99.90
23069;DHT22;11702;50.856;4.348;2022-12-18T16:46:08;2.20;99.90
23069;DHT22;11702;50.856;4.348;2022-12-18T16:48:34;2.20;99.90
23069;DHT22;11702;50.856;4.348;2022-12-18T16:51:02;2.20;99.90
23069;DHT22;11702;50.856;4.348;2022-12-18T16:53:28;2.20;99.90
23069;DHT22;11702;50.856;4.348;2022-12-18T16:55:54;2.30;99.90
23069;DHT22;11702;50.856;4.348;2022-12-18T16:58:20;2.20;99.90
23069;DHT22;11702;50.856;4.348;2022-12-18T17:00:46;2.30;99.90
23069;DHT22;11702;50.856;4.348;2022-12-18T17:03:11;2.30;99.90
23069;DHT22;11702;50.856;4.348;2022-12-18T17:05:37;2.20;99.90
23069;DHT22;11702;50.856;4.348;2022-12-18T17:08:02;2.20;99.90
23069;DHT22;11702;50.856;4.348;2022-12-18T17:10:28;2.20;99.90
23069;DHT22;11702;50.856;4.348;2022-12-18T17:12:54;2.20;99.90
23069;DHT22;11702;50.856;4.348;2022-12-18T17:15:19;2.20;99.90
23069;DHT22;11702;50.856;4.348;2022-12-18T17:17:45;2.20;99.90
23069;DHT22;11702;50.856;4.348;2022-12-18T17:20:10;2.10;99.90
23069;DHT22;11702;50.856;4.348;2022-12-18T17:22:36;2.10;99.90
23069;DHT22;11702;50.856;4.348;2022-12-18T17:25:02;2.10;99.90
23069;DHT22;11702;50.856;4.348;2022-12-18T17:27:28;2.00;99.90
23069;DHT22;11702;50.856;4.348;2022-12-18T17:29:54;2.00;99.90
23069;DHT22;11702;50.856;4.348;2022-12-18T17:32:19;2.00;99.90
23069;DHT22;11702;50.856;4.348;2022-12-18T17:34:45;1.90;99.90
23069;DHT22;11702;50.856;4.348;2022-12-18T17:37:12;1.90;99.90
23069;DHT22;11702;50.856;4.348;2022-12-18T17:39:38;1.90;99.90
23069;DHT22;11702;50.856;4.348;2022-12-18T17:42:04;1.80;99.90
23069;DHT22;11702;50.856;4.348;2022-12-18T17:44:30;1.80;99.90
23069;DHT22;11702;50.856;4.348;2022-12-18T17:46:55;1.80;99.90
23069;DHT22;11702;50.856;4.348;2022-12-18T17:49:21;1.80;99.90
23069;DHT22;11702;50.856;4.348;2022-12-18T17:51:47;1.80;99.90